Aérodrome :
LOGIN :

S'inscrire | Disclaimer

   EN    FR    IT 

 










Légende :    VFR   VFR Marginal   IFR   IFR Intensif   IFR Très Intensif
Visi : 
Plafond : 
>= 8 km
>= 3000ft
5 à 8 km
1000 à 3000 ft
1500m à 5 km
500 à 1000 ft
800 à 1500m
200 à 500 ft
< 800m
< 200 ft
Symboles :   Orages  Brouillard  Fortes neiges  Fortes précipitations  Vent > 20 kt
SIGMETs :   Divers  Orages  Givrage  Turbulence  Onde Orograph.  Cendres Volcan.






- Altitude de l'aérodrome : 49 ft
- Code IATA : GLZ


EHGR - Gilze-Rijen Airbase

DERNIER METAR :
  • 050525Z AUTO 23012KT 170V280 9999 OVC013 18/15 Q1010 GRN

METARs EXPIRÉS :
  • 050455Z AUTO 22013KT 180V260 9999 OVC014 18/15 Q1010 GRN
  • 050435Z AUTO 22009KT 190V290 9999 BKN014 OVC017 18/15 Q1010 GRN
  • 050425Z AUTO 22011KT 180V270 9999 BKN014 OVC016 18/15 Q1010 GRN
  • 050411Z AUTO 23011KT 200V270 9999 BKN014 OVC017 18/15 Q1010 GRN
  • 050401Z AUTO 23010G22KT 200V280 9999 OVC015 18/15 Q1010 WHT
  • 050355Z AUTO 22011G21KT 190V280 9999 BKN014 OVC016 18/15 Q1010 GRN
  • 050325Z AUTO 23010KT 200V270 9999 OVC015 18/15 Q1010 WHT
  • 050317Z AUTO 23011G21KT 200V280 9999 OVC016 18/15 Q1010 WHT
  • 050259Z AUTO 23010G20KT 200V270 9999 BKN014 OVC017 18/15 Q1010 GRN

Prévision TAF périmée.



MET'MAP, la Météo Aéronautique d'un coup d'oeil ! - Copyright ORBIFLY Décembre 2007 - Disclaimer

ORBIFLY MET'MAP TEAM :

Programmation & Développement : Alexandra Zaïnal
Sur une idée originale de : Baudouin d'Aumeries
Assistance à la programmation : Marc-Olivier Méhu
Soutien technique & logistique : Manuel Goepfert

Contact : metmap@orbifly.com




SOURCES & CREDITS :

   NOAA